sensor_id;sensor_type;location;lat;lon;timestamp;pressure;altitude;pressure_sealevel;temperature;humidity
72038;BME280;59900;50.788;12.904;2022-09-17T00:01:27;96658.91;;;9.48;77.06
72038;BME280;59900;50.788;12.904;2022-09-17T00:03:54;96657.28;;;9.47;77.08
72038;BME280;59900;50.788;12.904;2022-09-17T00:06:22;96661.16;;;9.44;76.88
72038;BME280;59900;50.788;12.904;2022-09-17T00:08:47;96661.16;;;9.44;77.25
72038;BME280;59900;50.788;12.904;2022-09-17T00:11:18;96668.78;;;9.46;77.30
72038;BME280;59900;50.788;12.904;2022-09-17T00:13:49;96670.81;;;9.44;77.20
72038;BME280;59900;50.788;12.904;2022-09-17T00:16:27;96666.59;;;9.43;77.16
72038;BME280;59900;50.788;12.904;2022-09-17T00:18:54;96660.53;;;9.42;77.21
72038;BME280;59900;50.788;12.904;2022-09-17T00:21:20;96662.72;;;9.45;77.08
72038;BME280;59900;50.788;12.904;2022-09-17T00:23:46;96670.41;;;9.47;77.10
72038;BME280;59900;50.788;12.904;2022-09-17T00:26:11;96669.41;;;9.48;76.98
72038;BME280;59900;50.788;12.904;2022-09-17T00:28:37;96666.78;;;9.48;77.43
72038;BME280;59900;50.788;12.904;2022-09-17T00:31:07;96660.50;;;9.49;77.12
72038;BME280;59900;50.788;12.904;2022-09-17T00:33:33;96652.44;;;9.50;76.81
72038;BME280;59900;50.788;12.904;2022-09-17T00:36:00;96655.66;;;9.52;76.95
72038;BME280;59900;50.788;12.904;2022-09-17T00:38:27;96658.03;;;9.54;76.90
72038;BME280;59900;50.788;12.904;2022-09-17T00:40:52;96669.34;;;9.54;77.13
72038;BME280;59900;50.788;12.904;2022-09-17T00:43:36;96667.09;;;9.58;77.01
72038;BME280;59900;50.788;12.904;2022-09-17T00:46:04;96664.88;;;9.62;77.26
72038;BME280;59900;50.788;12.904;2022-09-17T00:48:33;96664.88;;;9.62;76.82
72038;BME280;59900;50.788;12.904;2022-09-17T00:51:00;96658.63;;;9.63;76.86
72038;BME280;59900;50.788;12.904;2022-09-17T00:53:26;96669.47;;;9.66;76.60
72038;BME280;59900;50.788;12.904;2022-09-17T00:58:48;96675.75;;;9.65;76.69
72038;BME280;59900;50.788;12.904;2022-09-17T01:01:13;96669.47;;;9.66;76.55
72038;BME280;59900;50.788;12.904;2022-09-17T01:03:39;96651.13;;;9.66;76.27
72038;BME280;59900;50.788;12.904;2022-09-17T01:06:34;96672.09;;;9.66;77.16
72038;BME280;59900;50.788;12.904;2022-09-17T01:09:08;96668.91;;;9.64;76.81
72038;BME280;59900;50.788;12.904;2022-09-17T01:14:58;96666.50;;;9.63;77.10
72038;BME280;59900;50.788;12.904;2022-09-17T01:17:42;96666.69;;;9.61;76.88
72038;BME280;59900;50.788;12.904;2022-09-17T01:23:22;96664.84;;;9.68;76.73
72038;BME280;59900;50.788;12.904;2022-09-17T01:26:20;96664.63;;;9.70;76.52
72038;BME280;59900;50.788;12.904;2022-09-17T01:29:15;96661.59;;;9.66;76.91
72038;BME280;59900;50.788;12.904;2022-09-17T01:31:57;96655.78;;;9.64;76.83
72038;BME280;59900;50.788;12.904;2022-09-17T01:34:37;96670.28;;;9.67;76.80
72038;BME280;59900;50.788;12.904;2022-09-17T01:37:17;96668.91;;;9.64;76.52
72038;BME280;59900;50.788;12.904;2022-09-17T01:39:58;96673.94;;;9.66;77.03
72038;BME280;59900;50.788;12.904;2022-09-17T01:42:40;96675.75;;;9.65;77.11
72038;BME280;59900;50.788;12.904;2022-09-17T01:45:16;96670.28;;;9.67;76.99
72038;BME280;59900;50.788;12.904;2022-09-17T01:47:48;96668.91;;;9.64;77.67
72038;BME280;59900;50.788;12.904;2022-09-17T01:50:20;96670.50;;;9.65;77.88
72038;BME280;59900;50.788;12.904;2022-09-17T01:52:49;96668.31;;;9.62;78.21
72038;BME280;59900;50.788;12.904;2022-09-17T01:55:17;96668.09;;;9.64;77.89
72038;BME280;59900;50.788;12.904;2022-09-17T01:57:53;96666.50;;;9.63;77.49
72038;BME280;59900;50.788;12.904;2022-09-17T02:00:21;96658.41;;;9.64;78.03
72038;BME280;59900;50.788;12.904;2022-09-17T02:02:54;96652.16;;;9.65;77.83
72038;BME280;59900;50.788;12.904;2022-09-17T02:05:40;96667.88;;;9.65;77.87
72038;BME280;59900;50.788;12.904;2022-09-17T02:08:12;96666.66;;;9.68;77.64
72038;BME280;59900;50.788;12.904;2022-09-17T02:10:43;96663.81;;;9.69;77.63
72038;BME280;59900;50.788;12.904;2022-09-17T02:13:23;96656.97;;;9.68;77.56
72038;BME280;59900;50.788;12.904;2022-09-17T02:15:56;96662.41;;;9.67;77.31
72038;BME280;59900;50.788;12.904;2022-09-17T02:18:33;96670.91;;;9.69;77.84
72038;BME280;59900;50.788;12.904;2022-09-17T02:21:07;96662.81;;;9.70;77.67
72038;BME280;59900;50.788;12.904;2022-09-17T02:23:40;96669.28;;;9.68;77.84
72038;BME280;59900;50.788;12.904;2022-09-17T02:26:15;96661.03;;;9.64;78.05
72038;BME280;59900;50.788;12.904;2022-09-17T02:28:48;96670.94;;;9.62;78.38
72038;BME280;59900;50.788;12.904;2022-09-17T02:31:15;96659.03;;;9.60;78.77
72038;BME280;59900;50.788;12.904;2022-09-17T02:33:43;96659.63;;;9.62;78.88
72038;BME280;59900;50.788;12.904;2022-09-17T02:36:10;96669.31;;;9.61;78.95
72038;BME280;59900;50.788;12.904;2022-09-17T02:38:37;96656.63;;;9.58;79.03
72038;BME280;59900;50.788;12.904;2022-09-17T02:41:15;96654.38;;;9.62;79.42
72038;BME280;59900;50.788;12.904;2022-09-17T02:44:00;96658.25;;;9.59;79.71
72038;BME280;59900;50.788;12.904;2022-09-17T02:52:11;96656.47;;;9.46;81.52
72038;BME280;59900;50.788;12.904;2022-09-17T02:57:19;96652.91;;;9.34;83.12
72038;BME280;59900;50.788;12.904;2022-09-17T02:59:55;96661.41;;;9.30;84.49
72038;BME280;59900;50.788;12.904;2022-09-17T03:02:42;96651.16;;;9.22;86.09
72038;BME280;59900;50.788;12.904;2022-09-17T03:05:09;96662.66;;;9.21;87.07
72038;BME280;59900;50.788;12.904;2022-09-17T03:07:36;96659.47;;;9.12;88.04
72038;BME280;59900;50.788;12.904;2022-09-17T03:10:02;96666.13;;;9.08;88.87
72038;BME280;59900;50.788;12.904;2022-09-17T03:12:27;96663.13;;;9.05;89.50
72038;BME280;59900;50.788;12.904;2022-09-17T03:14:53;96648.03;;;9.00;90.10
72038;BME280;59900;50.788;12.904;2022-09-17T03:17:18;96655.91;;;8.93;90.50
72038;BME280;59900;50.788;12.904;2022-09-17T03:19:43;96652.53;;;8.86;90.75
72038;BME280;59900;50.788;12.904;2022-09-17T03:22:08;96653.72;;;8.84;91.04
72038;BME280;59900;50.788;12.904;2022-09-17T03:24:34;96653.72;;;8.84;91.15
72038;BME280;59900;50.788;12.904;2022-09-17T03:26:59;96649.91;;;8.80;92.02
72038;BME280;59900;50.788;12.904;2022-09-17T03:29:24;96644.88;;;8.78;92.17
72038;BME280;59900;50.788;12.904;2022-09-17T03:31:50;96654.16;;;8.74;92.63
72038;BME280;59900;50.788;12.904;2022-09-17T03:34:15;96660.41;;;8.73;92.04
72038;BME280;59900;50.788;12.904;2022-09-17T03:36:41;96658.19;;;8.70;92.35
72038;BME280;59900;50.788;12.904;2022-09-17T03:39:06;96659.00;;;8.71;92.76
72038;BME280;59900;50.788;12.904;2022-09-17T03:41:31;96658.19;;;8.70;93.06
72038;BME280;59900;50.788;12.904;2022-09-17T03:43:57;96655.38;;;8.72;93.77
72038;BME280;59900;50.788;12.904;2022-09-17T03:46:22;96658.41;;;8.69;93.80
72038;BME280;59900;50.788;12.904;2022-09-17T03:48:47;96654.97;;;8.68;93.85
72038;BME280;59900;50.788;12.904;2022-09-17T03:51:13;96664.06;;;8.66;94.32
72038;BME280;59900;50.788;12.904;2022-09-17T03:53:38;96664.25;;;8.64;94.98
72038;BME280;59900;50.788;12.904;2022-09-17T03:56:05;96662.44;;;8.65;94.78
72038;BME280;59900;50.788;12.904;2022-09-17T03:58:31;96661.63;;;8.64;95.21
72038;BME280;59900;50.788;12.904;2022-09-17T04:00:56;96672.09;;;8.64;94.99
72038;BME280;59900;50.788;12.904;2022-09-17T04:03:26;96660.63;;;8.65;95.58
72038;BME280;59900;50.788;12.904;2022-09-17T04:05:52;96663.66;;;8.62;95.86
72038;BME280;59900;50.788;12.904;2022-09-17T04:08:17;96656.00;;;8.61;95.81
72038;BME280;59900;50.788;12.904;2022-09-17T04:10:43;96662.44;;;8.65;96.20
72038;BME280;59900;50.788;12.904;2022-09-17T04:13:09;96657.81;;;8.60;96.08
72038;BME280;59900;50.788;12.904;2022-09-17T04:15:34;96657.03;;;8.60;96.78
72038;BME280;59900;50.788;12.904;2022-09-17T04:18:00;96656.22;;;8.59;96.30
72038;BME280;59900;50.788;12.904;2022-09-17T04:20:25;96658.41;;;8.62;96.47
72038;BME280;59900;50.788;12.904;2022-09-17T04:22:51;96656.41;;;8.64;96.80
72038;BME280;59900;50.788;12.904;2022-09-17T04:25:17;96650.34;;;8.64;96.76
72038;BME280;59900;50.788;12.904;2022-09-17T04:27:43;96649.13;;;8.66;96.25
72038;BME280;59900;50.788;12.904;2022-09-17T04:30:09;96656.97;;;8.66;96.62
72038;BME280;59900;50.788;12.904;2022-09-17T04:32:34;96646.72;;;8.65;96.84
72038;BME280;59900;50.788;12.904;2022-09-17T04:35:00;96652.38;;;8.62;96.97
72038;BME280;59900;50.788;12.904;2022-09-17T04:37:25;96654.41;;;8.60;97.86
72038;BME280;59900;50.788;12.904;2022-09-17T04:39:51;96665.06;;;8.58;97.82
72038;BME280;59900;50.788;12.904;2022-09-17T04:42:16;96657.22;;;8.58;97.48
72038;BME280;59900;50.788;12.904;2022-09-17T04:44:42;96652.38;;;8.55;97.82
72038;BME280;59900;50.788;12.904;2022-09-17T04:47:08;96646.72;;;8.58;97.68
72038;BME280;59900;50.788;12.904;2022-09-17T04:49:33;96651.78;;;8.60;97.85
72038;BME280;59900;50.788;12.904;2022-09-17T04:51:58;96653.59;;;8.59;97.63
72038;BME280;59900;50.788;12.904;2022-09-17T04:54:23;96654.41;;;8.60;98.15
72038;BME280;59900;50.788;12.904;2022-09-17T04:56:49;96652.78;;;8.59;98.22
72038;BME280;59900;50.788;12.904;2022-09-17T04:59:14;96658.81;;;8.59;98.45
72038;BME280;59900;50.788;12.904;2022-09-17T05:01:39;96655.19;;;8.60;98.06
72038;BME280;59900;50.788;12.904;2022-09-17T05:04:06;96655.59;;;8.64;98.31
72038;BME280;59900;50.788;12.904;2022-09-17T05:06:31;96658.81;;;8.66;97.86
72038;BME280;59900;50.788;12.904;2022-09-17T05:08:56;96660.63;;;8.65;98.12
72038;BME280;59900;50.788;12.904;2022-09-17T05:11:22;96660.63;;;8.65;98.42
72038;BME280;59900;50.788;12.904;2022-09-17T05:13:47;96659.41;;;8.61;98.82
72038;BME280;59900;50.788;12.904;2022-09-17T05:16:13;96661.22;;;8.61;99.24
72038;BME280;59900;50.788;12.904;2022-09-17T05:18:38;96659.63;;;8.60;99.38
72038;BME280;59900;50.788;12.904;2022-09-17T05:21:04;96669.09;;;8.61;99.43
72038;BME280;59900;50.788;12.904;2022-09-17T05:23:29;96659.63;;;8.60;99.26
72038;BME280;59900;50.788;12.904;2022-09-17T05:25:59;96667.88;;;8.63;99.41
72038;BME280;59900;50.788;12.904;2022-09-17T05:28:25;96669.50;;;8.64;99.21
72038;BME280;59900;50.788;12.904;2022-09-17T05:30:50;96664.06;;;8.66;98.77
72038;BME280;59900;50.788;12.904;2022-09-17T05:33:15;96664.06;;;8.66;99.58
72038;BME280;59900;50.788;12.904;2022-09-17T05:35:41;96658.19;;;8.64;99.62
72038;BME280;59900;50.788;12.904;2022-09-17T05:38:08;96668.91;;;8.62;99.54
72038;BME280;59900;50.788;12.904;2022-09-17T05:40:34;96669.31;;;8.59;99.70
72038;BME280;59900;50.788;12.904;2022-09-17T05:43:00;96671.94;;;8.59;99.57
72038;BME280;59900;50.788;12.904;2022-09-17T05:45:27;96670.72;;;8.62;99.48
72038;BME280;59900;50.788;12.904;2022-09-17T05:47:56;96668.91;;;8.62;99.64
72038;BME280;59900;50.788;12.904;2022-09-17T05:50:22;96668.09;;;8.62;99.88
72038;BME280;59900;50.788;12.904;2022-09-17T05:52:48;96675.13;;;8.61;99.57
72038;BME280;59900;50.788;12.904;2022-09-17T05:55:13;96665.25;;;8.63;99.35
72038;BME280;59900;50.788;12.904;2022-09-17T05:57:38;96665.47;;;8.62;99.95
72038;BME280;59900;50.788;12.904;2022-09-17T06:00:04;96673.31;;;8.62;99.13
72038;BME280;59900;50.788;12.904;2022-09-17T06:02:30;96674.53;;;8.66;99.83
72038;BME280;59900;50.788;12.904;2022-09-17T06:04:55;96677.94;;;8.66;100.00
72038;BME280;59900;50.788;12.904;2022-09-17T06:07:27;96673.31;;;8.68;99.93
72038;BME280;59900;50.788;12.904;2022-09-17T06:09:52;96673.72;;;8.65;100.00
72038;BME280;59900;50.788;12.904;2022-09-17T06:12:17;96683.16;;;8.66;100.00
72038;BME280;59900;50.788;12.904;2022-09-17T06:14:43;96684.19;;;8.65;100.00
72038;BME280;59900;50.788;12.904;2022-09-17T06:17:08;96682.19;;;8.67;99.97
72038;BME280;59900;50.788;12.904;2022-09-17T06:19:33;96682.75;;;8.69;99.62
72038;BME280;59900;50.788;12.904;2022-09-17T06:21:59;96685.38;;;8.69;100.00
72038;BME280;59900;50.788;12.904;2022-09-17T06:24:24;96694.69;;;8.72;99.94
72038;BME280;59900;50.788;12.904;2022-09-17T06:26:50;96691.84;;;8.73;99.64
72038;BME280;59900;50.788;12.904;2022-09-17T06:29:16;96686.19;;;8.76;99.86
72038;BME280;59900;50.788;12.904;2022-09-17T06:31:41;96685.97;;;8.78;99.83
72038;BME280;59900;50.788;12.904;2022-09-17T06:34:08;96685.56;;;8.81;99.97
72038;BME280;59900;50.788;12.904;2022-09-17T06:36:34;96688.00;;;8.82;100.00
72038;BME280;59900;50.788;12.904;2022-09-17T06:38:59;96687.41;;;8.80;100.00
72038;BME280;59900;50.788;12.904;2022-09-17T06:41:24;96689.38;;;8.85;99.92
72038;BME280;59900;50.788;12.904;2022-09-17T06:43:54;96691.00;;;8.86;100.00
72038;BME280;59900;50.788;12.904;2022-09-17T06:46:19;96690.78;;;8.87;99.97
72038;BME280;59900;50.788;12.904;2022-09-17T06:48:45;96693.00;;;8.90;99.96
72038;BME280;59900;50.788;12.904;2022-09-17T06:51:10;96704.88;;;8.93;100.00
72038;BME280;59900;50.788;12.904;2022-09-17T06:53:36;96705.28;;;8.96;99.89
72038;BME280;59900;50.788;12.904;2022-09-17T06:56:03;96698.81;;;8.99;99.74
72038;BME280;59900;50.788;12.904;2022-09-17T06:58:30;96703.66;;;9.02;100.00
72038;BME280;59900;50.788;12.904;2022-09-17T07:00:59;96696.59;;;9.02;100.00
72038;BME280;59900;50.788;12.904;2022-09-17T07:03:29;96705.84;;;9.05;99.76
72038;BME280;59900;50.788;12.904;2022-09-17T07:05:54;96709.06;;;9.07;99.78
72038;BME280;59900;50.788;12.904;2022-09-17T07:08:20;96717.75;;;9.08;98.41
72038;BME280;59900;50.788;12.904;2022-09-17T07:10:45;96707.63;;;9.18;99.04
72038;BME280;59900;50.788;12.904;2022-09-17T07:13:10;96711.44;;;9.22;98.88
72038;BME280;59900;50.788;12.904;2022-09-17T07:15:36;96705.19;;;9.23;98.50
72038;BME280;59900;50.788;12.904;2022-09-17T07:18:09;96703.16;;;9.25;98.28
72038;BME280;59900;50.788;12.904;2022-09-17T07:20:35;96715.28;;;9.26;98.74
72038;BME280;59900;50.788;12.904;2022-09-17T07:23:00;96712.22;;;9.29;98.22
72038;BME280;59900;50.788;12.904;2022-09-17T07:25:26;96705.56;;;9.33;98.14
72038;BME280;59900;50.788;12.904;2022-09-17T07:27:52;96715.22;;;9.39;98.48
72038;BME280;59900;50.788;12.904;2022-09-17T07:30:18;96728.91;;;9.47;97.97
72038;BME280;59900;50.788;12.904;2022-09-17T07:32:44;96722.44;;;9.50;96.89
72038;BME280;59900;50.788;12.904;2022-09-17T07:35:09;96727.84;;;9.55;96.35
72038;BME280;59900;50.788;12.904;2022-09-17T07:37:34;96728.84;;;9.54;96.72
72038;BME280;59900;50.788;12.904;2022-09-17T07:40:00;96734.50;;;9.57;96.99
72038;BME280;59900;50.788;12.904;2022-09-17T07:42:25;96734.69;;;9.63;96.98
72038;BME280;59900;50.788;12.904;2022-09-17T07:44:51;96735.69;;;9.68;96.71
72038;BME280;59900;50.788;12.904;2022-09-17T07:47:17;96741.28;;;9.72;95.65
72038;BME280;59900;50.788;12.904;2022-09-17T07:49:42;96757.03;;;9.72;94.53
72038;BME280;59900;50.788;12.904;2022-09-17T07:52:07;96748.16;;;9.73;93.96
72038;BME280;59900;50.788;12.904;2022-09-17T07:54:33;96745.53;;;9.73;93.08
72038;BME280;59900;50.788;12.904;2022-09-17T07:56:59;96759.22;;;9.75;93.74
72038;BME280;59900;50.788;12.904;2022-09-17T07:59:24;96762.06;;;9.80;92.84
72038;BME280;59900;50.788;12.904;2022-09-17T08:01:50;96761.25;;;9.79;93.18
72038;BME280;59900;50.788;12.904;2022-09-17T08:04:15;96775.75;;;9.82;93.59
72038;BME280;59900;50.788;12.904;2022-09-17T08:06:41;96772.06;;;9.89;92.17
72038;BME280;59900;50.788;12.904;2022-09-17T08:09:06;96784.34;;;9.95;92.06
72038;BME280;59900;50.788;12.904;2022-09-17T08:11:33;96771.03;;;9.97;91.81
72038;BME280;59900;50.788;12.904;2022-09-17T08:13:59;96769.00;;;9.99;92.20
72038;BME280;59900;50.788;12.904;2022-09-17T08:16:24;96775.84;;;10.06;92.20
72038;BME280;59900;50.788;12.904;2022-09-17T08:18:55;96779.88;;;10.09;90.86
72038;BME280;59900;50.788;12.904;2022-09-17T08:21:21;96779.06;;;10.15;91.36
72038;BME280;59900;50.788;12.904;2022-09-17T08:23:47;96780.19;;;10.26;91.37
72038;BME280;59900;50.788;12.904;2022-09-17T08:26:16;96778.09;;;10.34;90.45
72038;BME280;59900;50.788;12.904;2022-09-17T08:28:52;96772.97;;;10.46;91.24
72038;BME280;59900;50.788;12.904;2022-09-17T08:31:22;96788.53;;;10.47;89.81
72038;BME280;59900;50.788;12.904;2022-09-17T08:33:48;96779.84;;;10.47;89.47
72038;BME280;59900;50.788;12.904;2022-09-17T08:36:16;96794.13;;;10.51;90.65
72038;BME280;59900;50.788;12.904;2022-09-17T08:38:41;96797.81;;;10.50;89.53
72038;BME280;59900;50.788;12.904;2022-09-17T08:41:18;96795.72;;;10.58;89.07
72038;BME280;59900;50.788;12.904;2022-09-17T08:46:23;96804.13;;;10.67;86.11
72038;BME280;59900;50.788;12.904;2022-09-17T08:49:04;96797.66;;;10.69;86.51
72038;BME280;59900;50.788;12.904;2022-09-17T08:51:57;96798.88;;;10.67;86.81
72038;BME280;59900;50.788;12.904;2022-09-17T08:54:38;96805.34;;;10.71;86.51
72038;BME280;59900;50.788;12.904;2022-09-17T09:02:47;96803.56;;;10.65;86.98
72038;BME280;59900;50.788;12.904;2022-09-17T09:05:19;96819.94;;;10.60;85.51
72038;BME280;59900;50.788;12.904;2022-09-17T09:07:51;96805.56;;;10.63;85.96
72038;BME280;59900;50.788;12.904;2022-09-17T09:10:23;96802.91;;;10.69;86.74
72038;BME280;59900;50.788;12.904;2022-09-17T09:12:51;96795.16;;;10.75;85.98
72038;BME280;59900;50.788;12.904;2022-09-17T09:15:42;96808.13;;;10.76;83.76
72038;BME280;59900;50.788;12.904;2022-09-17T09:18:18;96793.69;;;10.85;84.77
72038;BME280;59900;50.788;12.904;2022-09-17T09:23:19;96788.75;;;11.13;85.75
72038;BME280;59900;50.788;12.904;2022-09-17T09:25:52;96787.03;;;11.25;84.00
72038;BME280;59900;50.788;12.904;2022-09-17T09:28:37;96794.34;;;11.23;80.97
72038;BME280;59900;50.788;12.904;2022-09-17T09:33:49;96792.44;;;11.49;78.93
72038;BME280;59900;50.788;12.904;2022-09-17T09:36:16;96783.47;;;11.56;78.30
72038;BME280;59900;50.788;12.904;2022-09-17T09:38:59;96810.94;;;11.60;76.12
72038;BME280;59900;50.788;12.904;2022-09-17T09:41:30;96790.69;;;11.61;76.90
72038;BME280;59900;50.788;12.904;2022-09-17T09:44:00;96798.00;;;11.59;77.77
72038;BME280;59900;50.788;12.904;2022-09-17T09:46:35;96798.81;;;11.59;78.78
72038;BME280;59900;50.788;12.904;2022-09-17T09:49:23;96798.28;;;11.51;78.73
72038;BME280;59900;50.788;12.904;2022-09-17T09:52:12;96810.06;;;11.30;79.51
72038;BME280;59900;50.788;12.904;2022-09-17T09:57:43;96831.72;;;10.51;83.33
72038;BME280;59900;50.788;12.904;2022-09-17T10:00:33;96808.63;;;10.35;85.98
72038;BME280;59900;50.788;12.904;2022-09-17T10:03:07;96812.63;;;10.38;87.68
72038;BME280;59900;50.788;12.904;2022-09-17T10:05:34;96817.91;;;10.31;87.25
72038;BME280;59900;50.788;12.904;2022-09-17T10:08:00;96823.56;;;10.35;87.06
72038;BME280;59900;50.788;12.904;2022-09-17T10:10:35;96814.25;;;10.39;86.50
72038;BME280;59900;50.788;12.904;2022-09-17T10:13:08;96818.00;;;10.49;86.68
72038;BME280;59900;50.788;12.904;2022-09-17T10:15:38;96822.41;;;10.55;85.07
72038;BME280;59900;50.788;12.904;2022-09-17T10:18:18;96825.38;;;10.65;85.11
72038;BME280;59900;50.788;12.904;2022-09-17T10:20:57;96810.50;;;10.78;84.93
72038;BME280;59900;50.788;12.904;2022-09-17T10:23:25;96813.84;;;10.91;84.29
72038;BME280;59900;50.788;12.904;2022-09-17T10:25:52;96814.00;;;10.96;83.38
72038;BME280;59900;50.788;12.904;2022-09-17T10:28:32;96809.28;;;11.05;83.82
72038;BME280;59900;50.788;12.904;2022-09-17T10:31:02;96812.13;;;11.03;83.51
72038;BME280;59900;50.788;12.904;2022-09-17T10:33:30;96828.69;;;11.04;84.86
72038;BME280;59900;50.788;12.904;2022-09-17T10:36:12;96839.72;;;10.94;81.60
72038;BME280;59900;50.788;12.904;2022-09-17T10:38:42;96824.13;;;10.93;82.03
72038;BME280;59900;50.788;12.904;2022-09-17T10:43:35;96824.19;;;10.86;80.78
72038;BME280;59900;50.788;12.904;2022-09-17T10:46:01;96825.81;;;10.87;80.68
72038;BME280;59900;50.788;12.904;2022-09-17T10:48:30;96829.72;;;10.78;79.31
72038;BME280;59900;50.788;12.904;2022-09-17T10:50:57;96821.03;;;10.78;78.93
72038;BME280;59900;50.788;12.904;2022-09-17T10:53:24;96820.16;;;10.84;78.63
72038;BME280;59900;50.788;12.904;2022-09-17T10:56:12;96823.31;;;10.92;79.88
72038;BME280;59900;50.788;12.904;2022-09-17T10:58:55;96817.97;;;11.05;79.92
72038;BME280;59900;50.788;12.904;2022-09-17T11:01:49;96815.50;;;11.10;78.28
72038;BME280;59900;50.788;12.904;2022-09-17T11:04:41;96813.00;;;11.15;79.02
72038;BME280;59900;50.788;12.904;2022-09-17T11:17:34;96806.41;;;11.67;75.37
72038;BME280;59900;50.788;12.904;2022-09-17T11:25:26;96818.91;;;11.90;73.51
72038;BME280;59900;50.788;12.904;2022-09-17T11:28:11;96800.72;;;11.89;72.22
72038;BME280;59900;50.788;12.904;2022-09-17T11:36:18;96802.09;;;11.91;72.82
72038;BME280;59900;50.788;12.904;2022-09-17T11:38:49;96804.88;;;11.96;72.32
72038;BME280;59900;50.788;12.904;2022-09-17T11:41:22;96816.84;;;11.92;72.42
72038;BME280;59900;50.788;12.904;2022-09-17T11:44:07;96813.06;;;11.88;69.54
72038;BME280;59900;50.788;12.904;2022-09-17T11:46:39;96812.63;;;11.91;71.68
72038;BME280;59900;50.788;12.904;2022-09-17T11:51:53;96812.00;;;12.07;71.56
72038;BME280;59900;50.788;12.904;2022-09-17T11:54:36;96820.50;;;12.09;70.14
72038;BME280;59900;50.788;12.904;2022-09-17T12:00:01;96809.81;;;12.34;71.84
72038;BME280;59900;50.788;12.904;2022-09-17T12:02:44;96808.97;;;12.52;72.52
72038;BME280;59900;50.788;12.904;2022-09-17T12:11:06;96791.22;;;12.59;72.11
72038;BME280;59900;50.788;12.904;2022-09-17T12:13:43;96809.03;;;12.45;74.06
72038;BME280;59900;50.788;12.904;2022-09-17T12:16:23;96790.50;;;12.10;74.66
72038;BME280;59900;50.788;12.904;2022-09-17T12:21:45;96796.31;;;11.64;75.46
72038;BME280;59900;50.788;12.904;2022-09-17T12:24:30;96800.13;;;11.50;75.11
72038;BME280;59900;50.788;12.904;2022-09-17T12:30:10;96797.06;;;11.71;77.63
72038;BME280;59900;50.788;12.904;2022-09-17T12:32:51;96793.97;;;11.93;77.82
72038;BME280;59900;50.788;12.904;2022-09-17T12:35:32;96789.25;;;12.13;77.80
72038;BME280;59900;50.788;12.904;2022-09-17T12:38:15;96787.53;;;12.18;73.41
72038;BME280;59900;50.788;12.904;2022-09-17T12:41:18;96784.38;;;12.28;72.03
72038;BME280;59900;50.788;12.904;2022-09-17T12:44:14;96789.66;;;12.40;72.49
72038;BME280;59900;50.788;12.904;2022-09-17T12:47:11;96786.25;;;12.51;73.92
72038;BME280;59900;50.788;12.904;2022-09-17T12:49:52;96794.34;;;12.26;70.60
72038;BME280;59900;50.788;12.904;2022-09-17T12:52:49;96790.41;;;11.87;68.01
72038;BME280;59900;50.788;12.904;2022-09-17T12:55:42;96788.06;;;11.43;66.67
72038;BME280;59900;50.788;12.904;2022-09-17T12:58:25;96791.25;;;11.08;65.40
72038;BME280;59900;50.788;12.904;2022-09-17T13:01:06;96785.66;;;10.98;67.26
72038;BME280;59900;50.788;12.904;2022-09-17T13:03:45;96780.41;;;10.98;67.73
72038;BME280;59900;50.788;12.904;2022-09-17T13:06:19;96774.13;;;10.99;66.56
72038;BME280;59900;50.788;12.904;2022-09-17T13:09:02;96778.09;;;11.08;67.59
72038;BME280;59900;50.788;12.904;2022-09-17T13:17:31;96762.63;;;11.73;65.91
72038;BME280;59900;50.788;12.904;2022-09-17T13:22:28;96762.16;;;12.24;65.48
72038;BME280;59900;50.788;12.904;2022-09-17T13:25:04;96759.75;;;12.34;64.63
72038;BME280;59900;50.788;12.904;2022-09-17T13:27:31;96764.94;;;12.41;64.82
72038;BME280;59900;50.788;12.904;2022-09-17T13:29:57;96755.09;;;12.48;65.98
72038;BME280;59900;50.788;12.904;2022-09-17T13:37:34;96747.25;;;13.29;61.18
72038;BME280;59900;50.788;12.904;2022-09-17T13:40:03;96740.19;;;13.58;57.26
72038;BME280;59900;50.788;12.904;2022-09-17T13:42:42;96733.38;;;13.73;56.14
72038;BME280;59900;50.788;12.904;2022-09-17T13:45:11;96761.31;;;13.86;55.37
72038;BME280;59900;50.788;12.904;2022-09-17T13:48:07;96736.28;;;13.88;54.17
72038;BME280;59900;50.788;12.904;2022-09-17T13:50:36;96717.66;;;13.95;53.93
72038;BME280;59900;50.788;12.904;2022-09-17T13:53:15;96736.44;;;13.82;51.86
72038;BME280;59900;50.788;12.904;2022-09-17T13:55:55;96747.59;;;13.72;53.19
72038;BME280;59900;50.788;12.904;2022-09-17T13:58:33;96739.25;;;13.92;53.00
72038;BME280;59900;50.788;12.904;2022-09-17T14:01:05;96737.97;;;14.23;53.71
72038;BME280;59900;50.788;12.904;2022-09-17T14:13:54;96767.91;;;15.45;49.22
72038;BME280;59900;50.788;12.904;2022-09-17T14:19:33;96767.19;;;13.36;56.66
72038;BME280;59900;50.788;12.904;2022-09-17T14:24:46;96777.53;;;11.97;61.77
72038;BME280;59900;50.788;12.904;2022-09-17T14:27:14;96784.19;;;11.82;62.58
72038;BME280;59900;50.788;12.904;2022-09-17T14:30:09;96791.69;;;11.96;64.30
72038;BME280;59900;50.788;12.904;2022-09-17T14:33:04;96782.72;;;12.15;65.36
72038;BME280;59900;50.788;12.904;2022-09-17T14:35:44;96769.75;;;12.02;64.38
72038;BME280;59900;50.788;12.904;2022-09-17T14:38:31;96776.66;;;11.85;62.97
72038;BME280;59900;50.788;12.904;2022-09-17T14:41:04;96759.69;;;11.81;61.89
72038;BME280;59900;50.788;12.904;2022-09-17T14:43:43;96754.88;;;12.08;57.77
72038;BME280;59900;50.788;12.904;2022-09-17T14:46:21;96745.63;;;12.81;56.85
72038;BME280;59900;50.788;12.904;2022-09-17T14:48:47;96757.28;;;13.55;54.77
72038;BME280;59900;50.788;12.904;2022-09-17T14:53:41;96746.81;;;14.45;54.50
72038;BME280;59900;50.788;12.904;2022-09-17T14:56:08;96744.59;;;14.87;53.33
72038;BME280;59900;50.788;12.904;2022-09-17T14:58:38;96739.25;;;15.20;52.16
72038;BME280;59900;50.788;12.904;2022-09-17T15:01:21;96749.63;;;15.65;52.20
72038;BME280;59900;50.788;12.904;2022-09-17T15:03:47;96740.38;;;15.89;50.82